sensor_id;sensor_type;location;lat;lon;timestamp;temperature;humidity
54930;DHT22;40833;53.238;6.576;2023-05-20T00:02:19;10.80;99.90
54930;DHT22;40833;53.238;6.576;2023-05-20T00:04:45;10.80;99.90
54930;DHT22;40833;53.238;6.576;2023-05-20T00:07:10;11.00;99.90
54930;DHT22;40833;53.238;6.576;2023-05-20T00:09:37;10.80;99.90
54930;DHT22;40833;53.238;6.576;2023-05-20T00:12:03;10.80;99.90
54930;DHT22;40833;53.238;6.576;2023-05-20T00:14:29;10.80;99.90
54930;DHT22;40833;53.238;6.576;2023-05-20T00:16:54;10.80;99.90
54930;DHT22;40833;53.238;6.576;2023-05-20T00:19:20;10.70;99.90
54930;DHT22;40833;53.238;6.576;2023-05-20T00:21:45;10.60;99.90
54930;DHT22;40833;53.238;6.576;2023-05-20T00:24:11;10.60;99.90
54930;DHT22;40833;53.238;6.576;2023-05-20T00:26:37;10.60;99.90
54930;DHT22;40833;53.238;6.576;2023-05-20T00:29:02;10.50;99.90
54930;DHT22;40833;53.238;6.576;2023-05-20T00:31:28;10.50;99.90
54930;DHT22;40833;53.238;6.576;2023-05-20T00:33:53;10.50;99.90
54930;DHT22;40833;53.238;6.576;2023-05-20T00:36:19;10.30;99.90
54930;DHT22;40833;53.238;6.576;2023-05-20T00:38:44;10.40;99.90
54930;DHT22;40833;53.238;6.576;2023-05-20T00:41:10;10.40;99.90
54930;DHT22;40833;53.238;6.576;2023-05-20T00:43:36;10.30;99.90
54930;DHT22;40833;53.238;6.576;2023-05-20T00:46:01;10.40;99.90
54930;DHT22;40833;53.238;6.576;2023-05-20T00:48:28;10.30;99.90
54930;DHT22;40833;53.238;6.576;2023-05-20T00:50:54;10.30;99.90
54930;DHT22;40833;53.238;6.576;2023-05-20T00:53:20;10.10;99.90
54930;DHT22;40833;53.238;6.576;2023-05-20T00:55:46;10.20;99.90
54930;DHT22;40833;53.238;6.576;2023-05-20T00:58:12;10.20;99.90
54930;DHT22;40833;53.238;6.576;2023-05-20T01:00:38;10.20;99.90
54930;DHT22;40833;53.238;6.576;2023-05-20T01:03:04;10.10;99.90
54930;DHT22;40833;53.238;6.576;2023-05-20T01:05:30;10.00;99.90
54930;DHT22;40833;53.238;6.576;2023-05-20T01:07:56;10.00;99.90
54930;DHT22;40833;53.238;6.576;2023-05-20T01:10:22;10.00;99.90
54930;DHT22;40833;53.238;6.576;2023-05-20T01:12:51;10.00;99.90
54930;DHT22;40833;53.238;6.576;2023-05-20T01:15:18;10.00;99.90
54930;DHT22;40833;53.238;6.576;2023-05-20T01:17:45;10.00;99.90
54930;DHT22;40833;53.238;6.576;2023-05-20T01:20:12;9.80;99.90
54930;DHT22;40833;53.238;6.576;2023-05-20T01:22:45;10.00;99.90
54930;DHT22;40833;53.238;6.576;2023-05-20T01:25:11;9.80;99.90
54930;DHT22;40833;53.238;6.576;2023-05-20T01:27:36;9.80;99.90
54930;DHT22;40833;53.238;6.576;2023-05-20T01:30:02;9.90;99.90
54930;DHT22;40833;53.238;6.576;2023-05-20T01:32:31;9.70;99.90
54930;DHT22;40833;53.238;6.576;2023-05-20T01:34:59;9.80;99.90
54930;DHT22;40833;53.238;6.576;2023-05-20T01:37:25;9.70;99.90
54930;DHT22;40833;53.238;6.576;2023-05-20T01:39:51;9.70;99.90
54930;DHT22;40833;53.238;6.576;2023-05-20T01:42:19;9.60;99.90
54930;DHT22;40833;53.238;6.576;2023-05-20T01:44:45;9.70;99.90
54930;DHT22;40833;53.238;6.576;2023-05-20T01:47:10;9.70;99.90
54930;DHT22;40833;53.238;6.576;2023-05-20T01:49:36;9.50;99.90
54930;DHT22;40833;53.238;6.576;2023-05-20T01:52:01;9.50;99.90
54930;DHT22;40833;53.238;6.576;2023-05-20T01:54:27;9.50;99.90
54930;DHT22;40833;53.238;6.576;2023-05-20T01:56:53;9.40;99.90
54930;DHT22;40833;53.238;6.576;2023-05-20T01:59:18;9.40;99.90
54930;DHT22;40833;53.238;6.576;2023-05-20T02:01:44;9.50;99.90
54930;DHT22;40833;53.238;6.576;2023-05-20T02:04:10;9.50;99.90
54930;DHT22;40833;53.238;6.576;2023-05-20T02:06:36;9.30;99.90
54930;DHT22;40833;53.238;6.576;2023-05-20T02:09:01;9.30;99.90
54930;DHT22;40833;53.238;6.576;2023-05-20T02:11:27;9.30;99.90
54930;DHT22;40833;53.238;6.576;2023-05-20T02:13:52;9.20;99.90
54930;DHT22;40833;53.238;6.576;2023-05-20T02:16:18;9.00;99.90
54930;DHT22;40833;53.238;6.576;2023-05-20T02:18:43;9.20;99.90
54930;DHT22;40833;53.238;6.576;2023-05-20T02:21:09;9.30;99.90
54930;DHT22;40833;53.238;6.576;2023-05-20T02:23:35;9.10;99.90
54930;DHT22;40833;53.238;6.576;2023-05-20T02:26:00;9.20;99.90
54930;DHT22;40833;53.238;6.576;2023-05-20T02:28:26;9.20;99.90
54930;DHT22;40833;53.238;6.576;2023-05-20T02:30:52;9.10;99.90
54930;DHT22;40833;53.238;6.576;2023-05-20T02:33:17;9.10;99.90
54930;DHT22;40833;53.238;6.576;2023-05-20T02:35:43;9.20;99.90
54930;DHT22;40833;53.238;6.576;2023-05-20T02:38:09;9.00;99.90
54930;DHT22;40833;53.238;6.576;2023-05-20T02:40:35;8.90;99.90
54930;DHT22;40833;53.238;6.576;2023-05-20T02:43:01;9.00;99.90
54930;DHT22;40833;53.238;6.576;2023-05-20T02:45:27;8.90;99.90
54930;DHT22;40833;53.238;6.576;2023-05-20T02:47:52;9.10;99.90
54930;DHT22;40833;53.238;6.576;2023-05-20T02:50:18;8.90;99.90
54930;DHT22;40833;53.238;6.576;2023-05-20T02:52:43;8.90;99.90
54930;DHT22;40833;53.238;6.576;2023-05-20T02:55:10;8.80;99.90
54930;DHT22;40833;53.238;6.576;2023-05-20T02:57:35;9.00;99.90
54930;DHT22;40833;53.238;6.576;2023-05-20T03:00:04;9.00;99.90
54930;DHT22;40833;53.238;6.576;2023-05-20T03:02:30;9.20;99.90
54930;DHT22;40833;53.238;6.576;2023-05-20T03:04:56;9.00;99.90
54930;DHT22;40833;53.238;6.576;2023-05-20T03:07:22;9.00;99.90
54930;DHT22;40833;53.238;6.576;2023-05-20T03:09:47;9.20;99.90
54930;DHT22;40833;53.238;6.576;2023-05-20T03:12:13;9.10;99.90
54930;DHT22;40833;53.238;6.576;2023-05-20T03:14:39;9.20;99.90
54930;DHT22;40833;53.238;6.576;2023-05-20T03:17:04;9.30;99.90
54930;DHT22;40833;53.238;6.576;2023-05-20T03:19:30;9.00;99.90
54930;DHT22;40833;53.238;6.576;2023-05-20T03:21:55;9.10;99.90
54930;DHT22;40833;53.238;6.576;2023-05-20T03:24:22;9.00;99.90
54930;DHT22;40833;53.238;6.576;2023-05-20T03:26:48;9.00;99.90
54930;DHT22;40833;53.238;6.576;2023-05-20T03:29:13;8.90;99.90
54930;DHT22;40833;53.238;6.576;2023-05-20T03:34:05;8.80;99.90
54930;DHT22;40833;53.238;6.576;2023-05-20T03:36:30;8.80;99.90
54930;DHT22;40833;53.238;6.576;2023-05-20T03:38:56;8.90;99.90
54930;DHT22;40833;53.238;6.576;2023-05-20T03:41:22;8.80;99.90
54930;DHT22;40833;53.238;6.576;2023-05-20T03:43:47;8.90;99.90
54930;DHT22;40833;53.238;6.576;2023-05-20T03:46:13;8.80;99.90
54930;DHT22;40833;53.238;6.576;2023-05-20T03:48:38;8.70;99.90
54930;DHT22;40833;53.238;6.576;2023-05-20T03:51:04;8.70;99.90
54930;DHT22;40833;53.238;6.576;2023-05-20T03:53:29;9.00;99.90
54930;DHT22;40833;53.238;6.576;2023-05-20T03:55:55;9.00;99.90
54930;DHT22;40833;53.238;6.576;2023-05-20T03:58:21;8.90;99.90
54930;DHT22;40833;53.238;6.576;2023-05-20T04:00:47;9.10;99.90
54930;DHT22;40833;53.238;6.576;2023-05-20T04:03:13;9.20;99.90
54930;DHT22;40833;53.238;6.576;2023-05-20T04:05:39;9.30;99.90
54930;DHT22;40833;53.238;6.576;2023-05-20T04:08:05;9.40;99.90
54930;DHT22;40833;53.238;6.576;2023-05-20T04:10:31;9.50;99.90
54930;DHT22;40833;53.238;6.576;2023-05-20T04:12:57;9.40;99.90
54930;DHT22;40833;53.238;6.576;2023-05-20T04:15:22;9.60;99.90
54930;DHT22;40833;53.238;6.576;2023-05-20T04:17:49;9.60;99.90
54930;DHT22;40833;53.238;6.576;2023-05-20T04:20:16;9.60;99.90
54930;DHT22;40833;53.238;6.576;2023-05-20T04:22:45;9.70;99.90
54930;DHT22;40833;53.238;6.576;2023-05-20T04:25:11;9.90;99.90
54930;DHT22;40833;53.238;6.576;2023-05-20T04:27:36;10.00;99.90
54930;DHT22;40833;53.238;6.576;2023-05-20T04:30:03;10.00;99.90
54930;DHT22;40833;53.238;6.576;2023-05-20T04:32:28;9.90;99.90
54930;DHT22;40833;53.238;6.576;2023-05-20T04:34:54;10.00;99.90
54930;DHT22;40833;53.238;6.576;2023-05-20T04:37:20;10.00;99.90
54930;DHT22;40833;53.238;6.576;2023-05-20T04:39:46;10.10;99.90
54930;DHT22;40833;53.238;6.576;2023-05-20T04:42:14;10.30;99.90
54930;DHT22;40833;53.238;6.576;2023-05-20T04:44:42;10.30;99.90
54930;DHT22;40833;53.238;6.576;2023-05-20T04:47:10;10.40;99.90
54930;DHT22;40833;53.238;6.576;2023-05-20T04:49:36;14.10;99.90
54930;DHT22;40833;53.238;6.576;2023-05-20T04:52:02;10.40;99.90
54930;DHT22;40833;53.238;6.576;2023-05-20T04:54:29;10.60;99.90
54930;DHT22;40833;53.238;6.576;2023-05-20T04:56:55;10.60;99.90
54930;DHT22;40833;53.238;6.576;2023-05-20T04:59:21;10.60;99.90
54930;DHT22;40833;53.238;6.576;2023-05-20T05:01:46;10.60;99.90
54930;DHT22;40833;53.238;6.576;2023-05-20T05:04:12;10.70;99.90
54930;DHT22;40833;53.238;6.576;2023-05-20T05:06:37;10.70;99.90
54930;DHT22;40833;53.238;6.576;2023-05-20T05:09:03;10.70;99.90
54930;DHT22;40833;53.238;6.576;2023-05-20T05:11:29;10.80;99.90
54930;DHT22;40833;53.238;6.576;2023-05-20T05:13:55;10.80;99.90
54930;DHT22;40833;53.238;6.576;2023-05-20T05:16:21;10.90;99.90
54930;DHT22;40833;53.238;6.576;2023-05-20T05:18:46;11.00;99.90
54930;DHT22;40833;53.238;6.576;2023-05-20T05:21:12;11.20;99.90
54930;DHT22;40833;53.238;6.576;2023-05-20T05:23:37;11.20;99.90
54930;DHT22;40833;53.238;6.576;2023-05-20T05:26:03;11.30;99.90
54930;DHT22;40833;53.238;6.576;2023-05-20T05:28:29;11.30;99.90
54930;DHT22;40833;53.238;6.576;2023-05-20T05:30:54;11.40;99.90
54930;DHT22;40833;53.238;6.576;2023-05-20T05:33:20;11.70;99.90
54930;DHT22;40833;53.238;6.576;2023-05-20T05:35:46;11.80;99.90
54930;DHT22;40833;53.238;6.576;2023-05-20T05:38:12;11.70;99.90
54930;DHT22;40833;53.238;6.576;2023-05-20T05:40:37;11.60;99.90
54930;DHT22;40833;53.238;6.576;2023-05-20T05:43:03;11.90;99.90
54930;DHT22;40833;53.238;6.576;2023-05-20T05:45:28;11.90;99.90
54930;DHT22;40833;53.238;6.576;2023-05-20T05:47:54;11.90;99.90
54930;DHT22;40833;53.238;6.576;2023-05-20T05:50:20;12.00;99.90
54930;DHT22;40833;53.238;6.576;2023-05-20T05:55:11;12.20;99.90
54930;DHT22;40833;53.238;6.576;2023-05-20T05:57:37;12.00;99.90
54930;DHT22;40833;53.238;6.576;2023-05-20T06:00:02;12.00;99.90
54930;DHT22;40833;53.238;6.576;2023-05-20T06:02:29;12.00;99.90
54930;DHT22;40833;53.238;6.576;2023-05-20T06:04:54;12.00;99.90
54930;DHT22;40833;53.238;6.576;2023-05-20T06:07:20;12.00;99.90
54930;DHT22;40833;53.238;6.576;2023-05-20T06:09:45;12.10;99.90
54930;DHT22;40833;53.238;6.576;2023-05-20T06:12:11;12.00;99.90
54930;DHT22;40833;53.238;6.576;2023-05-20T06:14:36;12.10;99.90
54930;DHT22;40833;53.238;6.576;2023-05-20T06:17:04;12.00;99.90
54930;DHT22;40833;53.238;6.576;2023-05-20T06:19:30;12.20;99.90
54930;DHT22;40833;53.238;6.576;2023-05-20T06:21:56;12.10;99.90
54930;DHT22;40833;53.238;6.576;2023-05-20T06:24:22;12.10;99.90
54930;DHT22;40833;53.238;6.576;2023-05-20T06:26:47;12.20;99.90
54930;DHT22;40833;53.238;6.576;2023-05-20T06:29:14;12.30;99.90
54930;DHT22;40833;53.238;6.576;2023-05-20T06:31:40;12.20;99.90
54930;DHT22;40833;53.238;6.576;2023-05-20T06:38:57;12.40;99.90
54930;DHT22;40833;53.238;6.576;2023-05-20T06:41:23;12.50;99.90
54930;DHT22;40833;53.238;6.576;2023-05-20T06:43:49;12.50;99.90
54930;DHT22;40833;53.238;6.576;2023-05-20T06:48:40;12.70;99.90
54930;DHT22;40833;53.238;6.576;2023-05-20T06:51:06;12.40;99.90
54930;DHT22;40833;53.238;6.576;2023-05-20T06:55:59;12.80;99.90
54930;DHT22;40833;53.238;6.576;2023-05-20T06:58:25;12.90;99.90
54930;DHT22;40833;53.238;6.576;2023-05-20T07:00:50;12.90;99.90
54930;DHT22;40833;53.238;6.576;2023-05-20T07:03:16;12.90;99.90
54930;DHT22;40833;53.238;6.576;2023-05-20T07:10:34;13.20;99.90
54930;DHT22;40833;53.238;6.576;2023-05-20T07:12:59;13.20;99.90
54930;DHT22;40833;53.238;6.576;2023-05-20T07:17:51;13.20;99.90
54930;DHT22;40833;53.238;6.576;2023-05-20T07:20:16;13.30;99.90
54930;DHT22;40833;53.238;6.576;2023-05-20T07:22:42;13.50;99.90
54930;DHT22;40833;53.238;6.576;2023-05-20T07:25:08;13.50;99.90
54930;DHT22;40833;53.238;6.576;2023-05-20T07:27:34;13.60;99.90
54930;DHT22;40833;53.238;6.576;2023-05-20T07:30:00;13.50;99.90
54930;DHT22;40833;53.238;6.576;2023-05-20T07:32:25;13.50;99.90
54930;DHT22;40833;53.238;6.576;2023-05-20T07:34:51;13.70;99.90
54930;DHT22;40833;53.238;6.576;2023-05-20T07:37:16;13.60;99.90
54930;DHT22;40833;53.238;6.576;2023-05-20T07:39:42;13.80;99.90
54930;DHT22;40833;53.238;6.576;2023-05-20T07:42:07;14.00;99.90
54930;DHT22;40833;53.238;6.576;2023-05-20T07:44:33;14.00;99.90
54930;DHT22;40833;53.238;6.576;2023-05-20T07:46:59;13.90;99.90
54930;DHT22;40833;53.238;6.576;2023-05-20T07:49:25;14.10;99.90
54930;DHT22;40833;53.238;6.576;2023-05-20T07:51:50;14.10;99.90
54930;DHT22;40833;53.238;6.576;2023-05-20T07:54:16;14.30;99.90
54930;DHT22;40833;53.238;6.576;2023-05-20T07:56:42;14.30;99.90
54930;DHT22;40833;53.238;6.576;2023-05-20T07:59:07;14.20;99.90
54930;DHT22;40833;53.238;6.576;2023-05-20T08:01:33;14.50;99.90
54930;DHT22;40833;53.238;6.576;2023-05-20T08:03:59;14.40;99.90
54930;DHT22;40833;53.238;6.576;2023-05-20T08:06:24;14.60;99.90
54930;DHT22;40833;53.238;6.576;2023-05-20T08:08:50;14.30;99.90
54930;DHT22;40833;53.238;6.576;2023-05-20T08:11:19;14.80;99.90
54930;DHT22;40833;53.238;6.576;2023-05-20T08:13:44;14.90;99.90
54930;DHT22;40833;53.238;6.576;2023-05-20T08:16:10;14.90;99.90
54930;DHT22;40833;53.238;6.576;2023-05-20T08:18:35;15.00;99.90
54930;DHT22;40833;53.238;6.576;2023-05-20T08:21:02;15.00;99.90
54930;DHT22;40833;53.238;6.576;2023-05-20T08:23:27;15.20;99.90
54930;DHT22;40833;53.238;6.576;2023-05-20T08:25:53;15.30;99.90
54930;DHT22;40833;53.238;6.576;2023-05-20T08:28:18;15.30;99.90
54930;DHT22;40833;53.238;6.576;2023-05-20T08:30:45;15.30;99.90
54930;DHT22;40833;53.238;6.576;2023-05-20T08:33:12;15.50;99.90
54930;DHT22;40833;53.238;6.576;2023-05-20T08:35:37;15.50;99.90
54930;DHT22;40833;53.238;6.576;2023-05-20T08:38:05;15.50;99.90
54930;DHT22;40833;53.238;6.576;2023-05-20T08:40:33;17.10;99.90
54930;DHT22;40833;53.238;6.576;2023-05-20T08:42:58;15.80;99.90
54930;DHT22;40833;53.238;6.576;2023-05-20T08:45:26;15.70;99.90
54930;DHT22;40833;53.238;6.576;2023-05-20T08:47:53;16.00;99.90
54930;DHT22;40833;53.238;6.576;2023-05-20T08:50:19;16.10;99.90
54930;DHT22;40833;53.238;6.576;2023-05-20T08:52:45;16.30;99.90
54930;DHT22;40833;53.238;6.576;2023-05-20T08:55:25;16.20;99.90
54930;DHT22;40833;53.238;6.576;2023-05-20T08:57:53;16.20;99.90
54930;DHT22;40833;53.238;6.576;2023-05-20T09:00:20;16.30;99.90
54930;DHT22;40833;53.238;6.576;2023-05-20T09:02:48;16.30;99.90
54930;DHT22;40833;53.238;6.576;2023-05-20T09:05:13;16.40;99.90
54930;DHT22;40833;53.238;6.576;2023-05-20T09:07:39;16.50;99.90
54930;DHT22;40833;53.238;6.576;2023-05-20T09:10:07;16.60;99.90
54930;DHT22;40833;53.238;6.576;2023-05-20T09:12:32;16.50;99.90
54930;DHT22;40833;53.238;6.576;2023-05-20T09:14:58;16.70;99.90
54930;DHT22;40833;53.238;6.576;2023-05-20T09:17:23;16.80;99.90
54930;DHT22;40833;53.238;6.576;2023-05-20T09:19:49;16.80;99.90
54930;DHT22;40833;53.238;6.576;2023-05-20T09:22:22;16.50;99.90
54930;DHT22;40833;53.238;6.576;2023-05-20T09:24:49;16.10;99.90
54930;DHT22;40833;53.238;6.576;2023-05-20T09:27:15;17.10;99.90
54930;DHT22;40833;53.238;6.576;2023-05-20T09:29:41;17.20;99.90
54930;DHT22;40833;53.238;6.576;2023-05-20T09:32:09;17.50;99.90
54930;DHT22;40833;53.238;6.576;2023-05-20T09:34:36;17.40;99.90
54930;DHT22;40833;53.238;6.576;2023-05-20T09:37:01;17.50;99.90
54930;DHT22;40833;53.238;6.576;2023-05-20T09:39:28;17.40;99.90
54930;DHT22;40833;53.238;6.576;2023-05-20T09:41:56;17.70;99.90
54930;DHT22;40833;53.238;6.576;2023-05-20T09:44:22;17.60;99.90
54930;DHT22;40833;53.238;6.576;2023-05-20T09:46:49;17.90;99.90
54930;DHT22;40833;53.238;6.576;2023-05-20T09:49:15;17.60;99.90
54930;DHT22;40833;53.238;6.576;2023-05-20T09:51:41;17.90;99.90
54930;DHT22;40833;53.238;6.576;2023-05-20T09:54:08;17.80;99.90
54930;DHT22;40833;53.238;6.576;2023-05-20T09:56:35;17.90;99.90
54930;DHT22;40833;53.238;6.576;2023-05-20T09:59:01;18.00;99.90
54930;DHT22;40833;53.238;6.576;2023-05-20T10:01:26;17.80;99.90
54930;DHT22;40833;53.238;6.576;2023-05-20T10:03:52;18.00;99.90
54930;DHT22;40833;53.238;6.576;2023-05-20T10:06:27;18.10;99.90
54930;DHT22;40833;53.238;6.576;2023-05-20T10:16:53;18.10;99.90
54930;DHT22;40833;53.238;6.576;2023-05-20T10:19:26;18.10;99.90
54930;DHT22;40833;53.238;6.576;2023-05-20T10:22:06;18.20;99.90
54930;DHT22;40833;53.238;6.576;2023-05-20T10:24:37;18.20;99.90
54930;DHT22;40833;53.238;6.576;2023-05-20T10:27:03;18.60;99.90
54930;DHT22;40833;53.238;6.576;2023-05-20T10:29:29;18.70;99.90
54930;DHT22;40833;53.238;6.576;2023-05-20T10:31:55;18.50;99.90
54930;DHT22;40833;53.238;6.576;2023-05-20T10:34:21;18.40;99.90
54930;DHT22;40833;53.238;6.576;2023-05-20T10:39:24;18.60;99.90
54930;DHT22;40833;53.238;6.576;2023-05-20T10:41:50;18.40;99.90
54930;DHT22;40833;53.238;6.576;2023-05-20T10:44:16;18.40;99.90
54930;DHT22;40833;53.238;6.576;2023-05-20T10:46:41;18.30;99.90
54930;DHT22;40833;53.238;6.576;2023-05-20T10:49:17;18.40;99.90
54930;DHT22;40833;53.238;6.576;2023-05-20T10:51:43;18.70;99.90
54930;DHT22;40833;53.238;6.576;2023-05-20T10:54:10;18.80;99.90
54930;DHT22;40833;53.238;6.576;2023-05-20T10:56:36;18.70;99.90
54930;DHT22;40833;53.238;6.576;2023-05-20T10:59:01;18.40;99.90
54930;DHT22;40833;53.238;6.576;2023-05-20T11:01:27;18.50;99.90
54930;DHT22;40833;53.238;6.576;2023-05-20T11:03:53;18.30;99.90
54930;DHT22;40833;53.238;6.576;2023-05-20T11:06:24;18.70;99.90
54930;DHT22;40833;53.238;6.576;2023-05-20T11:08:50;18.50;99.90
54930;DHT22;40833;53.238;6.576;2023-05-20T11:11:15;18.60;99.90
54930;DHT22;40833;53.238;6.576;2023-05-20T11:13:41;18.60;99.90
54930;DHT22;40833;53.238;6.576;2023-05-20T11:16:07;18.70;99.90
54930;DHT22;40833;53.238;6.576;2023-05-20T11:18:33;18.70;99.90
54930;DHT22;40833;53.238;6.576;2023-05-20T11:20:59;18.90;99.90
54930;DHT22;40833;53.238;6.576;2023-05-20T11:23:25;18.70;99.90
54930;DHT22;40833;53.238;6.576;2023-05-20T11:25:51;18.60;99.90
54930;DHT22;40833;53.238;6.576;2023-05-20T11:28:18;18.60;99.90
54930;DHT22;40833;53.238;6.576;2023-05-20T11:30:43;18.70;99.90
54930;DHT22;40833;53.238;6.576;2023-05-20T11:33:13;18.50;99.90
54930;DHT22;40833;53.238;6.576;2023-05-20T11:38:10;18.90;99.90
54930;DHT22;40833;53.238;6.576;2023-05-20T11:40:36;19.30;99.90
54930;DHT22;40833;53.238;6.576;2023-05-20T11:43:02;19.30;99.90
54930;DHT22;40833;53.238;6.576;2023-05-20T11:45:40;19.20;99.90
54930;DHT22;40833;53.238;6.576;2023-05-20T11:48:06;19.20;99.90
54930;DHT22;40833;53.238;6.576;2023-05-20T11:50:34;19.20;99.90
54930;DHT22;40833;53.238;6.576;2023-05-20T11:53:04;19.90;99.90
54930;DHT22;40833;53.238;6.576;2023-05-20T11:55:30;20.00;99.90
54930;DHT22;40833;53.238;6.576;2023-05-20T11:57:57;19.60;99.90
54930;DHT22;40833;53.238;6.576;2023-05-20T12:00:22;19.90;99.90
54930;DHT22;40833;53.238;6.576;2023-05-20T12:02:48;20.00;99.90
54930;DHT22;40833;53.238;6.576;2023-05-20T12:05:14;20.20;99.90
54930;DHT22;40833;53.238;6.576;2023-05-20T12:07:40;20.20;99.90
54930;DHT22;40833;53.238;6.576;2023-05-20T12:10:06;20.50;99.90
54930;DHT22;40833;53.238;6.576;2023-05-20T12:12:32;20.60;99.90
54930;DHT22;40833;53.238;6.576;2023-05-20T12:14:58;23.60;99.90
54930;DHT22;40833;53.238;6.576;2023-05-20T12:17:23;21.10;99.90
54930;DHT22;40833;53.238;6.576;2023-05-20T12:19:49;21.20;99.90
54930;DHT22;40833;53.238;6.576;2023-05-20T12:22:14;21.20;99.90
54930;DHT22;40833;53.238;6.576;2023-05-20T12:24:40;21.10;99.90
54930;DHT22;40833;53.238;6.576;2023-05-20T12:27:06;21.00;99.90
54930;DHT22;40833;53.238;6.576;2023-05-20T12:29:32;21.00;99.90
54930;DHT22;40833;53.238;6.576;2023-05-20T12:33:44;20.60;99.90
54930;DHT22;40833;53.238;6.576;2023-05-20T12:36:10;20.70;99.90
54930;DHT22;40833;53.238;6.576;2023-05-20T12:38:37;20.80;99.90
54930;DHT22;40833;53.238;6.576;2023-05-20T12:41:03;20.90;99.90
54930;DHT22;40833;53.238;6.576;2023-05-20T12:43:29;21.00;99.90
54930;DHT22;40833;53.238;6.576;2023-05-20T12:45:55;21.10;99.90
54930;DHT22;40833;53.238;6.576;2023-05-20T12:48:20;21.00;99.90
54930;DHT22;40833;53.238;6.576;2023-05-20T12:50:46;21.10;99.90
54930;DHT22;40833;53.238;6.576;2023-05-20T12:53:12;21.40;99.90
54930;DHT22;40833;53.238;6.576;2023-05-20T12:55:37;21.50;99.90
54930;DHT22;40833;53.238;6.576;2023-05-20T12:58:03;21.70;99.90
54930;DHT22;40833;53.238;6.576;2023-05-20T13:00:29;21.70;99.90
54930;DHT22;40833;53.238;6.576;2023-05-20T13:02:55;21.80;99.90
54930;DHT22;40833;53.238;6.576;2023-05-20T13:05:21;21.80;99.90
54930;DHT22;40833;53.238;6.576;2023-05-20T13:07:47;21.50;99.90
54930;DHT22;40833;53.238;6.576;2023-05-20T13:10:13;21.40;99.90
54930;DHT22;40833;53.238;6.576;2023-05-20T13:12:39;21.50;99.90
54930;DHT22;40833;53.238;6.576;2023-05-20T13:15:10;21.40;99.90
54930;DHT22;40833;53.238;6.576;2023-05-20T13:17:36;21.40;99.90
54930;DHT22;40833;53.238;6.576;2023-05-20T13:20:02;21.60;99.90
54930;DHT22;40833;53.238;6.576;2023-05-20T13:22:28;21.70;99.90
54930;DHT22;40833;53.238;6.576;2023-05-20T13:24:54;21.70;99.90
54930;DHT22;40833;53.238;6.576;2023-05-20T13:27:20;21.60;99.90
54930;DHT22;40833;53.238;6.576;2023-05-20T13:29:45;21.80;99.90
54930;DHT22;40833;53.238;6.576;2023-05-20T13:32:11;21.90;99.90
54930;DHT22;40833;53.238;6.576;2023-05-20T13:34:37;21.70;99.90
54930;DHT22;40833;53.238;6.576;2023-05-20T13:37:04;21.50;99.90
54930;DHT22;40833;53.238;6.576;2023-05-20T13:39:29;21.40;99.90
54930;DHT22;40833;53.238;6.576;2023-05-20T13:41:55;21.30;99.90
54930;DHT22;40833;53.238;6.576;2023-05-20T13:44:21;21.30;99.90
54930;DHT22;40833;53.238;6.576;2023-05-20T13:46:47;21.50;99.90
54930;DHT22;40833;53.238;6.576;2023-05-20T13:49:12;21.80;99.90
54930;DHT22;40833;53.238;6.576;2023-05-20T13:51:38;22.10;99.90
54930;DHT22;40833;53.238;6.576;2023-05-20T13:54:03;22.30;99.90
54930;DHT22;40833;53.238;6.576;2023-05-20T13:56:30;22.20;99.90
54930;DHT22;40833;53.238;6.576;2023-05-20T13:58:56;22.00;99.90
54930;DHT22;40833;53.238;6.576;2023-05-20T14:01:22;21.80;99.90
54930;DHT22;40833;53.238;6.576;2023-05-20T14:03:48;21.70;99.90
54930;DHT22;40833;53.238;6.576;2023-05-20T14:06:14;21.90;99.90
54930;DHT22;40833;53.238;6.576;2023-05-20T14:08:43;22.30;99.90
54930;DHT22;40833;53.238;6.576;2023-05-20T14:11:10;22.50;99.90
54930;DHT22;40833;53.238;6.576;2023-05-20T14:13:36;22.60;99.90
54930;DHT22;40833;53.238;6.576;2023-05-20T14:16:01;22.40;99.90
54930;DHT22;40833;53.238;6.576;2023-05-20T14:18:27;22.20;99.90
54930;DHT22;40833;53.238;6.576;2023-05-20T14:20:53;22.30;99.90
54930;DHT22;40833;53.238;6.576;2023-05-20T14:23:19;22.40;99.90
54930;DHT22;40833;53.238;6.576;2023-05-20T14:25:45;22.50;99.90
54930;DHT22;40833;53.238;6.576;2023-05-20T14:28:11;22.70;99.90
54930;DHT22;40833;53.238;6.576;2023-05-20T14:30:37;22.70;99.90
54930;DHT22;40833;53.238;6.576;2023-05-20T14:33:02;22.50;99.90
54930;DHT22;40833;53.238;6.576;2023-05-20T14:35:28;22.30;99.90
54930;DHT22;40833;53.238;6.576;2023-05-20T14:37:54;22.10;99.90
54930;DHT22;40833;53.238;6.576;2023-05-20T14:40:19;22.00;99.90
54930;DHT22;40833;53.238;6.576;2023-05-20T14:42:45;22.10;99.90
54930;DHT22;40833;53.238;6.576;2023-05-20T14:45:11;22.40;99.90
54930;DHT22;40833;53.238;6.576;2023-05-20T14:47:37;22.60;99.90
54930;DHT22;40833;53.238;6.576;2023-05-20T14:50:05;23.00;99.90
54930;DHT22;40833;53.238;6.576;2023-05-20T14:52:31;23.00;99.90
54930;DHT22;40833;53.238;6.576;2023-05-20T14:54:56;22.90;99.90
54930;DHT22;40833;53.238;6.576;2023-05-20T14:57:22;22.60;99.90
54930;DHT22;40833;53.238;6.576;2023-05-20T14:59:48;22.40;99.90
54930;DHT22;40833;53.238;6.576;2023-05-20T15:02:17;22.20;99.90
54930;DHT22;40833;53.238;6.576;2023-05-20T15:04:43;22.10;99.90
54930;DHT22;40833;53.238;6.576;2023-05-20T15:07:12;22.10;99.90
54930;DHT22;40833;53.238;6.576;2023-05-20T15:09:38;22.00;99.90
54930;DHT22;40833;53.238;6.576;2023-05-20T15:12:04;21.80;99.90
54930;DHT22;40833;53.238;6.576;2023-05-20T15:14:30;21.70;99.90
54930;DHT22;40833;53.238;6.576;2023-05-20T15:16:56;21.70;99.90
54930;DHT22;40833;53.238;6.576;2023-05-20T15:19:21;21.60;99.90
54930;DHT22;40833;53.238;6.576;2023-05-20T15:21:47;21.50;99.90
54930;DHT22;40833;53.238;6.576;2023-05-20T15:24:16;21.30;99.90
54930;DHT22;40833;53.238;6.576;2023-05-20T15:26:42;21.20;99.90
54930;DHT22;40833;53.238;6.576;2023-05-20T15:29:08;21.20;99.90
54930;DHT22;40833;53.238;6.576;2023-05-20T15:31:33;21.70;99.90
54930;DHT22;40833;53.238;6.576;2023-05-20T15:33:59;22.10;99.90
54930;DHT22;40833;53.238;6.576;2023-05-20T15:36:25;22.50;99.90
54930;DHT22;40833;53.238;6.576;2023-05-20T15:38:51;22.90;99.30
54930;DHT22;40833;53.238;6.576;2023-05-20T15:41:17;23.40;98.80
54930;DHT22;40833;53.238;6.576;2023-05-20T15:43:42;23.60;98.20
54930;DHT22;40833;53.238;6.576;2023-05-20T15:46:09;23.30;98.10
54930;DHT22;40833;53.238;6.576;2023-05-20T15:48:35;23.00;98.40
54930;DHT22;40833;53.238;6.576;2023-05-20T15:51:02;22.70;98.60
54930;DHT22;40833;53.238;6.576;2023-05-20T15:53:28;22.40;98.70
54930;DHT22;40833;53.238;6.576;2023-05-20T15:55:53;22.10;99.00
54930;DHT22;40833;53.238;6.576;2023-05-20T15:58:19;21.90;99.30
54930;DHT22;40833;53.238;6.576;2023-05-20T16:00:45;21.70;99.40
54930;DHT22;40833;53.238;6.576;2023-05-20T16:03:11;22.20;99.50
54930;DHT22;40833;53.238;6.576;2023-05-20T16:05:37;23.10;98.80